Time;durP1;ratioP1;P1;durP2;ratioP2;P2;SDS_P1;SDS_P2;PMS_P1;PMS_P2;Temp;Humidity;BMP_temperature;BMP_pressure;BME280_temperature;BME280_humidity;BME280_pressure;Samples;Min_cycle;Max_cycle;Signal;HPM_P1;HPM_P2
2022/07/03 00:00:30;;;;;;;1.73;1.23;;;17.50;99.90;;;;;;5071233;28;20406;-55
2022/07/03 00:02:56;;;;;;;3.13;1.13;;;17.50;99.90;;;;;;5071181;28;20063;-58
2022/07/03 00:05:22;;;;;;;6.93;1.17;;;17.40;99.90;;;;;;5071614;28;20037;-60
2022/07/03 00:07:47;;;;;;;4.18;1.48;;;17.30;99.90;;;;;;5070466;28;20020;-59
2022/07/03 00:10:13;;;;;;;2.25;1.42;;;17.20;99.90;;;;;;5071479;28;20036;-59
2022/07/03 00:12:39;;;;;;;6.85;1.25;;;17.20;99.90;;;;;;5070830;28;20024;-58
2022/07/03 00:15:05;;;;;;;3.22;1.50;;;17.10;99.90;;;;;;5071610;28;20036;-58
2022/07/03 00:17:30;;;;;;;2.30;1.42;;;17.00;99.90;;;;;;5070767;28;20027;-57
2022/07/03 00:19:56;;;;;;;2.58;1.75;;;16.90;99.90;;;;;;5071453;28;20024;-58
2022/07/03 00:22:24;;;;;;;5.78;1.33;;;16.90;99.90;;;;;;5060386;28;20027;-58
2022/07/03 00:24:52;;;;;;;3.50;1.67;;;16.80;99.90;;;;;;5070247;28;20444;-63
2022/07/03 00:27:20;;;;;;;4.85;1.60;;;16.70;99.90;;;;;;5071325;28;20032;-58
2022/07/03 00:29:46;;;;;;;4.00;1.58;;;16.70;99.90;;;;;;5071217;28;20028;-59
2022/07/03 00:32:24;;;;;;;1.90;1.20;;;16.60;99.90;;;;;;5070938;28;20021;-58
2022/07/03 00:34:55;;;;;;;4.55;1.35;;;16.60;99.90;;;;;;5070553;28;20446;-59
2022/07/03 00:37:21;;;;;;;5.90;1.70;;;16.50;99.90;;;;;;5058115;28;20029;-59
2022/07/03 00:39:48;;;;;;;5.32;1.10;;;16.50;99.90;;;;;;5050866;28;20086;-59
2022/07/03 00:42:14;;;;;;;4.70;1.52;;;16.40;99.90;;;;;;5050123;28;20021;-60
2022/07/03 00:44:49;;;;;;;3.00;1.25;;;16.40;99.90;;;;;;5050900;28;20025;-58
2022/07/03 00:47:17;;;;;;;2.00;1.30;;;16.50;99.90;;;;;;5050686;28;20390;-59
2022/07/03 00:49:48;;;;;;;12.55;2.08;;;16.40;99.90;;;;;;5049941;28;20036;-60
2022/07/03 00:52:15;;;;;;;6.07;1.52;;;16.30;99.90;;;;;;5069920;28;20172;-58
2022/07/03 00:54:52;;;;;;;3.97;1.63;;;16.30;99.90;;;;;;5068109;28;20502;-60
2022/07/03 00:57:20;;;;;;;3.30;1.30;;;16.20;99.90;;;;;;5069669;28;20128;-58
2022/07/03 00:59:45;;;;;;;5.80;1.30;;;16.30;99.90;;;;;;5069728;28;20355;-59
2022/07/03 01:02:38;;;;;;;4.85;1.52;;;16.30;99.90;;;;;;5069479;28;20025;-58
2022/07/03 01:05:22;;;;;;;2.33;1.40;;;16.40;99.90;;;;;;5069669;28;20032;-59
2022/07/03 01:07:48;;;;;;;;;;;16.30;99.90;;;;;;5070141;28;20030;-60
2022/07/03 01:10:29;;;;;;;5.03;1.40;;;16.30;99.90;;;;;;5049620;28;19995;-62
2022/07/03 01:13:11;;;;;;;2.72;1.55;;;16.40;99.90;;;;;;5049205;28;20029;-62
2022/07/03 01:15:40;;;;;;;6.07;1.52;;;16.30;99.90;;;;;;5049475;28;20013;-62
2022/07/03 01:18:29;;;;;;;2.13;1.42;;;16.20;99.90;;;;;;5050094;28;20052;-59
2022/07/03 01:21:15;;;;;;;4.53;1.40;;;16.10;99.90;;;;;;5049930;28;20335;-62
2022/07/03 01:23:48;;;;;;;5.97;1.50;;;16.10;99.90;;;;;;5058714;28;20090;-61
2022/07/03 01:26:15;;;;;;;7.13;2.00;;;16.10;99.90;;;;;;5069483;28;20037;-61
2022/07/03 01:28:45;;;;;;;5.18;2.15;;;16.10;99.90;;;;;;5069725;28;20029;-62
2022/07/03 01:31:17;;;;;;;4.25;1.75;;;16.10;99.90;;;;;;5069823;28;20542;-59
2022/07/03 01:33:43;;;;;;;6.97;2.13;;;16.10;99.90;;;;;;5069448;28;20471;-61
2022/07/03 01:36:11;;;;;;;4.13;2.15;;;16.00;99.90;;;;;;5069587;28;20077;-60
2022/07/03 01:38:42;;;;;;;3.15;1.70;;;16.00;99.90;;;;;;5051247;28;20109;-60
2022/07/03 01:41:10;;;;;;;5.35;2.38;;;15.90;99.90;;;;;;5049822;28;20028;-60
2022/07/03 01:43:46;;;;;;;5.00;2.08;;;15.80;99.90;;;;;;5049156;28;20093;-59
2022/07/03 01:46:14;;;;;;;1.90;1.45;;;15.80;99.90;;;;;;5049746;28;20029;-59
2022/07/03 01:48:43;;;;;;;4.00;1.83;;;15.70;99.90;;;;;;5012971;28;1058713;-59
2022/07/03 01:51:13;;;;;;;4.97;1.52;;;15.80;99.90;;;;;;5050233;28;20025;-62
2022/07/03 01:53:45;;;;;;;3.20;1.80;;;15.70;99.90;;;;;;5070159;28;20041;-59
2022/07/03 01:56:11;;;;;;;6.05;2.08;;;15.80;99.90;;;;;;5070286;28;20082;-62
2022/07/03 01:58:37;;;;;;;9.23;2.00;;;15.80;99.90;;;;;;5070175;28;20021;-59
2022/07/03 02:01:32;;;;;;;3.58;2.03;;;15.70;99.90;;;;;;5070041;28;20111;-60
2022/07/03 02:04:28;;;;;;;5.72;2.10;;;15.70;99.90;;;;;;5054534;28;20028;-61
2022/07/03 02:07:09;;;;;;;3.60;1.83;;;15.70;99.90;;;;;;5069629;28;20075;-58
2022/07/03 02:09:50;;;;;;;4.90;2.08;;;15.70;99.90;;;;;;5070119;28;20032;-59
2022/07/03 02:12:19;;;;;;;2.97;1.65;;;15.70;99.90;;;;;;5070122;28;20363;-61
2022/07/03 02:15:02;;;;;;;3.58;1.98;;;15.80;99.90;;;;;;5069998;28;20386;-60
2022/07/03 02:17:34;;;;;;;6.50;1.73;;;15.70;99.90;;;;;;5067197;28;20490;-59
2022/07/03 02:20:02;;;;;;;8.52;2.22;;;15.70;99.90;;;;;;5069999;28;20050;-59
2022/07/03 02:22:34;;;;;;;11.93;2.15;;;15.70;99.90;;;;;;5069641;28;20486;-59
2022/07/03 02:25:08;;;;;;;4.80;2.15;;;15.70;99.90;;;;;;5055639;28;20082;-59
2022/07/03 02:28:06;;;;;;;4.93;2.05;;;15.60;99.90;;;;;;5071916;28;20028;-61
2022/07/03 02:30:35;;;;;;;4.30;2.22;;;15.60;99.90;;;;;;5057738;28;20036;-58
2022/07/03 02:33:02;;;;;;;4.63;2.10;;;15.60;99.90;;;;;;5072927;28;20494;-59
2022/07/03 02:35:30;;;;;;;17.73;3.35;;;15.60;99.90;;;;;;5074324;28;20025;-60
2022/07/03 02:38:11;;;;;;;7.32;2.47;;;15.60;99.90;;;;;;5073806;28;20360;-58
2022/07/03 02:40:51;;;;;;;9.93;2.47;;;15.50;99.90;;;;;;5073515;28;20025;-59
2022/07/03 02:43:30;;;;;;;5.38;2.65;;;15.50;99.90;;;;;;5072909;28;20021;-60
2022/07/03 02:49:13;;;;;;;4.88;2.50;;;15.50;99.90;;;;;;5073245;28;20171;-59
2022/07/03 02:51:44;;;;;;;8.55;2.47;;;15.50;99.90;;;;;;5073199;28;20040;-61
2022/07/03 02:54:14;;;;;;;7.72;3.00;;;15.60;99.90;;;;;;5072702;28;20100;-61
2022/07/03 02:56:39;;;;;;;5.18;2.38;;;15.50;99.90;;;;;;5073521;28;20020;-59
2022/07/03 02:59:37;;;;;;;15.10;2.70;;;15.50;99.90;;;;;;5073740;28;20025;-60
2022/07/03 03:02:24;;;;;;;7.22;2.58;;;15.50;99.90;;;;;;5073263;28;20067;-60
2022/07/03 03:04:59;;;;;;;4.75;2.65;;;15.50;99.90;;;;;;5073171;28;20027;-60
2022/07/03 03:07:34;;;;;;;;;;;15.50;99.90;;;;;;5073570;28;20024;-59
2022/07/03 03:10:00;;;;;;;6.50;2.42;;;15.40;99.90;;;;;;5072366;28;20015;-60
2022/07/03 03:12:34;;;;;;;5.38;2.30;;;15.30;99.90;;;;;;5072633;28;20116;-60
2022/07/03 03:15:03;;;;;;;9.47;3.60;;;15.40;99.90;;;;;;5073130;28;20021;-60
2022/07/03 03:17:50;;;;;;;8.30;3.10;;;15.30;99.90;;;;;;5072991;28;20055;-61
2022/07/03 03:20:18;;;;;;;8.10;3.47;;;15.20;99.90;;;;;;5072547;28;20098;-60
2022/07/03 03:23:01;;;;;;;6.93;2.83;;;15.20;99.90;;;;;;5072715;28;20358;-59
2022/07/03 03:25:27;;;;;;;5.50;2.88;;;15.20;99.90;;;;;;5072638;28;20379;-59
2022/07/03 03:27:53;;;;;;;7.38;3.45;;;15.10;99.90;;;;;;5072704;28;20040;-59
2022/07/03 03:30:19;;;;;;;6.20;3.08;;;15.10;99.90;;;;;;5072854;28;20062;-60
2022/07/03 03:32:45;;;;;;;11.23;3.50;;;15.10;99.90;;;;;;5071839;28;20074;-60
2022/07/03 03:35:10;;;;;;;7.78;3.45;;;15.00;99.90;;;;;;5072673;28;20021;-61
2022/07/03 03:37:36;;;;;;;7.80;2.97;;;15.00;99.90;;;;;;5072600;28;20032;-60
2022/07/03 03:40:04;;;;;;;3.72;2.58;;;14.90;99.90;;;;;;5072342;28;20045;-58
2022/07/03 03:42:29;;;;;;;10.88;3.50;;;15.00;99.90;;;;;;5072117;28;20033;-59
2022/07/03 03:44:55;;;;;;;7.95;3.08;;;14.90;99.90;;;;;;5073035;28;20111;-61
2022/07/03 03:47:20;;;;;;;5.82;3.05;;;15.00;99.90;;;;;;5072081;28;20125;-57
2022/07/03 03:49:46;;;;;;;8.20;3.35;;;15.00;99.90;;;;;;5099194;22;20075;-58
2022/07/03 03:52:11;;;;;;;7.85;3.38;;;15.00;99.90;;;;;;5091434;28;20024;-58
2022/07/03 03:54:37;;;;;;;11.77;3.50;;;14.90;99.90;;;;;;5075707;28;20487;-57
2022/07/03 03:57:35;;;;;;;7.75;3.35;;;14.90;99.90;;;;;;5071896;28;20142;-58
2022/07/03 04:00:00;;;;;;;11.05;3.65;;;14.90;99.90;;;;;;5057969;28;20060;-58
2022/07/03 04:02:26;;;;;;;9.45;3.67;;;14.80;99.90;;;;;;5091703;28;20374;-58
2022/07/03 04:04:51;;;;;;;8.68;3.47;;;14.90;99.90;;;;;;5092010;28;20386;-60
2022/07/03 04:07:17;;;;;;;7.93;3.17;;;14.90;99.90;;;;;;5091415;28;20040;-59
2022/07/03 04:09:44;;;;;;;4.85;3.00;;;15.00;99.90;;;;;;5085281;28;20774;-60
2022/07/03 04:12:10;;;;;;;8.40;2.83;;;15.10;99.90;;;;;;5071651;28;20553;-60
2022/07/03 04:14:35;;;;;;;15.50;3.47;;;15.10;99.90;;;;;;5071762;28;20028;-60
2022/07/03 04:17:01;;;;;;;5.18;3.15;;;15.10;99.90;;;;;;5074216;28;20054;-60
2022/07/03 04:19:27;;;;;;;5.50;3.08;;;15.20;99.90;;;;;;5071020;28;20029;-60
2022/07/03 04:21:52;;;;;;;6.85;3.00;;;15.20;99.90;;;;;;5070657;28;20032;-60
2022/07/03 04:24:18;;;;;;;7.55;3.08;;;15.20;99.90;;;;;;5071632;28;20048;-60
2022/07/03 04:26:44;;;;;;;9.87;3.00;;;15.20;99.90;;;;;;5073001;28;20040;-60
2022/07/03 04:29:10;;;;;;;5.78;3.58;;;15.20;99.90;;;;;;5087512;28;20043;-60
2022/07/03 04:31:35;;;;;;;9.70;3.45;;;15.20;99.90;;;;;;5091377;28;20555;-60
2022/07/03 04:34:01;;;;;;;7.20;3.03;;;15.20;99.90;;;;;;5091511;28;20069;-60
2022/07/03 04:36:26;;;;;;;5.38;3.60;;;15.30;99.90;;;;;;5091659;28;20657;-58
2022/07/03 04:38:52;;;;;;;7.38;3.15;;;15.40;99.90;;;;;;5091431;28;20028;-60
2022/07/03 04:41:17;;;;;;;6.35;2.83;;;15.50;99.90;;;;;;5091051;28;20067;-60
2022/07/03 04:43:43;;;;;;;9.50;3.10;;;15.50;99.90;;;;;;5090226;28;20055;-60
2022/07/03 04:46:09;;;;;;;5.55;3.33;;;15.50;99.90;;;;;;5090771;28;20029;-59
2022/07/03 04:48:34;;;;;;;7.72;3.33;;;15.70;99.90;;;;;;5091196;28;20039;-59
2022/07/03 04:51:00;;;;;;;6.07;3.08;;;15.60;99.90;;;;;;5091002;28;20024;-59
2022/07/03 04:53:25;;;;;;;7.38;3.67;;;15.70;99.90;;;;;;5090532;28;20047;-59
2022/07/03 04:55:52;;;;;;;5.65;3.22;;;15.70;99.90;;;;;;5089495;28;20080;-60
2022/07/03 04:58:18;;;;;;;6.43;3.70;;;15.70;99.90;;;;;;5091055;28;20117;-60
2022/07/03 05:00:44;;;;;;;6.03;4.30;;;15.70;99.90;;;;;;5090928;28;20078;-61
2022/07/03 05:03:10;;;;;;;6.00;3.80;;;15.70;99.90;;;;;;5072235;28;20435;-60
2022/07/03 05:05:35;;;;;;;7.30;3.15;;;15.70;99.90;;;;;;5070247;28;20043;-60
2022/07/03 05:08:01;;;;;;;6.28;3.05;;;15.70;99.90;;;;;;5072038;28;20117;-59
2022/07/03 05:10:27;;;;;;;7.80;2.95;;;15.70;99.90;;;;;;5090800;28;20103;-59
2022/07/03 05:12:53;;;;;;;4.32;2.80;;;15.80;99.90;;;;;;5090711;28;20032;-60
2022/07/03 05:15:19;;;;;;;4.50;2.72;;;15.90;99.90;;;;;;5090883;28;20020;-60
2022/07/03 05:17:45;;;;;;;3.58;2.50;;;16.00;99.90;;;;;;5090472;28;20028;-58
2022/07/03 05:20:29;;;;;;;7.57;3.03;;;16.10;99.90;;;;;;5090843;28;20031;-60
2022/07/03 05:22:56;;;;;;;7.30;2.75;;;16.30;99.90;;;;;;5072199;28;20029;-60
2022/07/03 05:25:22;;;;;;;7.53;2.63;;;16.40;99.90;;;;;;5070385;28;20032;-59
2022/07/03 05:27:50;;;;;;;4.57;2.42;;;16.50;99.90;;;;;;5069998;28;20021;-60
2022/07/03 05:30:16;;;;;;;5.75;2.90;;;16.70;99.90;;;;;;5070262;28;20100;-60
2022/07/03 05:32:42;;;;;;;5.47;2.50;;;16.70;99.90;;;;;;5069966;28;20032;-60
2022/07/03 05:35:08;;;;;;;4.40;2.70;;;16.80;99.90;;;;;;5073771;28;20026;-59
2022/07/03 05:37:34;;;;;;;6.13;2.53;;;16.90;99.90;;;;;;5090312;28;20034;-60
2022/07/03 05:40:00;;;;;;;7.93;2.20;;;17.00;99.90;;;;;;5090397;28;20027;-60
2022/07/03 05:42:25;;;;;;;4.85;2.42;;;17.10;99.90;;;;;;5090046;28;20414;-59
2022/07/03 05:44:51;;;;;;;3.95;1.83;;;17.20;99.90;;;;;;5089782;28;20027;-60
2022/07/03 05:47:16;;;;;;;3.92;1.88;;;17.30;99.90;;;;;;5090361;28;20031;-60
2022/07/03 05:49:42;;;;;;;5.68;1.88;;;17.40;99.90;;;;;;5087268;28;20034;-60
2022/07/03 05:52:07;;;;;;;8.27;1.83;;;17.50;99.90;;;;;;5069858;28;20023;-60
2022/07/03 05:54:33;;;;;;;4.38;2.25;;;17.60;99.90;;;;;;5070069;28;20074;-60
2022/07/03 05:56:59;;;;;;;7.15;2.08;;;17.60;99.90;;;;;;5069786;28;20032;-60
2022/07/03 05:59:24;;;;;;;7.22;2.10;;;17.70;99.90;;;;;;5069328;28;20024;-60
2022/07/03 06:01:50;;;;;;;6.35;1.85;;;17.70;99.90;;;;;;5069774;28;20104;-60
2022/07/03 06:04:16;;;;;;;5.43;1.77;;;17.80;99.90;;;;;;5077473;28;20564;-59
2022/07/03 06:06:41;;;;;;;2.53;1.55;;;17.80;99.90;;;;;;5090150;28;20394;-59
2022/07/03 06:09:07;;;;;;;5.57;2.05;;;17.90;99.90;;;;;;5089992;28;20439;-60
2022/07/03 06:11:32;;;;;;;6.30;1.70;;;18.00;99.90;;;;;;5090201;28;20616;-60
2022/07/03 06:13:58;;;;;;;3.88;2.08;;;18.10;99.90;;;;;;5090073;28;20024;-59
2022/07/03 06:16:24;;;;;;;5.05;1.75;;;18.20;99.90;;;;;;5089392;28;20087;-60
2022/07/03 06:18:49;;;;;;;5.88;2.03;;;18.40;99.90;;;;;;5089243;28;20032;-60
2022/07/03 06:21:15;;;;;;;3.13;1.50;;;18.50;99.90;;;;;;5089769;28;20031;-60
2022/07/03 06:23:40;;;;;;;7.40;2.38;;;18.60;99.90;;;;;;5083651;28;20479;-60
2022/07/03 06:26:06;;;;;;;3.50;1.85;;;18.60;99.90;;;;;;5069849;28;20033;-60
2022/07/03 06:28:31;;;;;;;5.03;1.80;;;18.70;99.90;;;;;;5069437;28;20032;-59
2022/07/03 06:30:57;;;;;;;10.30;1.88;;;18.70;99.90;;;;;;5069450;28;20027;-60
2022/07/03 06:33:23;;;;;;;4.30;1.90;;;18.80;99.90;;;;;;5081574;28;20028;-60
2022/07/03 06:35:49;;;;;;;7.38;1.80;;;18.90;99.90;;;;;;5089728;28;20063;-59
2022/07/03 06:38:14;;;;;;;8.27;2.17;;;18.90;99.90;;;;;;5089568;28;20024;-60
2022/07/03 06:40:40;;;;;;;4.25;1.55;;;18.90;99.90;;;;;;5089091;28;20028;-60
2022/07/03 06:43:05;;;;;;;3.63;1.75;;;19.00;99.90;;;;;;5089398;28;20032;-60
2022/07/03 06:45:31;;;;;;;6.03;2.10;;;19.00;99.90;;;;;;5089645;28;20038;-60
2022/07/03 06:47:56;;;;;;;8.48;2.17;;;19.00;99.90;;;;;;5078051;28;20024;-60
2022/07/03 06:50:22;;;;;;;5.55;1.80;;;19.10;99.90;;;;;;5069632;28;20044;-60
2022/07/03 06:52:47;;;;;;;4.30;1.90;;;19.20;99.90;;;;;;5069312;28;20094;-60
2022/07/03 06:55:13;;;;;;;7.53;2.05;;;19.30;99.90;;;;;;5070388;28;20032;-60
2022/07/03 06:57:39;;;;;;;7.32;2.22;;;19.40;99.90;;;;;;5069052;28;20103;-59
2022/07/03 07:00:05;;;;;;;5.78;2.08;;;19.50;99.90;;;;;;5069758;28;20063;-60
2022/07/03 07:02:31;;;;;;;4.30;1.88;;;19.50;99.90;;;;;;5069050;28;20052;-60
2022/07/03 07:04:56;;;;;;;5.75;1.92;;;19.60;99.90;;;;;;5069158;28;20060;-60
2022/07/03 07:07:22;;;;;;;9.43;2.28;;;19.70;99.90;;;;;;5069130;28;20452;-59
2022/07/03 07:09:48;;;;;;;7.65;2.45;;;19.80;99.90;;;;;;5087925;28;20059;-59
2022/07/03 07:12:14;;;;;;;2.42;1.90;;;19.90;99.90;;;;;;5094068;28;20367;-59
2022/07/03 07:14:39;;;;;;;6.13;1.80;;;19.90;99.90;;;;;;5094632;28;20099;-60
2022/07/03 07:17:05;;;;;;;3.67;1.83;;;19.90;99.90;;;;;;5094489;28;20063;-59
2022/07/03 07:19:31;;;;;;;4.70;1.80;;;20.00;99.90;;;;;;5094657;28;20079;-59
2022/07/03 07:21:56;;;;;;;6.55;2.10;;;20.10;99.90;;;;;;5094463;28;20028;-59
2022/07/03 07:24:22;;;;;;;2.28;1.85;;;20.20;99.90;;;;;;5079064;28;20063;-59
2022/07/03 07:26:47;;;;;;;7.65;1.80;;;20.10;99.90;;;;;;5074109;28;20501;-58
2022/07/03 07:29:13;;;;;;;3.80;2.30;;;20.10;99.90;;;;;;5072813;28;20500;-60
2022/07/03 07:31:39;;;;;;;4.05;1.95;;;20.20;99.90;;;;;;5073932;28;20029;-60
2022/07/03 07:34:04;;;;;;;4.57;2.03;;;20.30;99.90;;;;;;5074037;28;20033;-60
2022/07/03 07:36:31;;;;;;;4.60;1.90;;;20.30;99.90;;;;;;5074334;28;20017;-59
2022/07/03 07:38:57;;;;;;;3.60;1.90;;;20.40;99.90;;;;;;5080263;28;20046;-60
2022/07/03 07:41:22;;;;;;;8.07;2.03;;;20.40;99.90;;;;;;5093932;28;20032;-60
2022/07/03 07:43:48;;;;;;;5.10;2.45;;;20.40;99.90;;;;;;5094064;28;20032;-59
2022/07/03 07:46:13;;;;;;;4.70;1.90;;;20.40;99.90;;;;;;5094206;28;20024;-61
2022/07/03 07:48:39;;;;;;;10.13;2.38;;;20.50;99.90;;;;;;5093873;28;20024;-60
2022/07/03 07:51:04;;;;;;;10.52;1.88;;;20.50;99.90;;;;;;5094070;28;20102;-60
2022/07/03 07:53:30;;;;;;;6.03;2.65;;;20.50;99.90;;;;;;5087114;28;20052;-59
2022/07/03 07:55:56;;;;;;;8.02;2.10;;;20.50;99.90;;;;;;5081684;28;20110;-60
2022/07/03 07:58:22;;;;;;;8.35;2.03;;;20.60;99.90;;;;;;5093880;28;20039;-61
2022/07/03 08:06:17;;;;;;;5.93;2.30;;;20.90;99.90;;;;;;5093906;28;20337;-58
2022/07/03 08:08:42;;;;;;;5.35;1.90;;;21.00;99.90;;;;;;5091485;28;20093;-60
2022/07/03 08:11:08;;;;;;;5.75;2.30;;;21.00;99.90;;;;;;5086842;28;20458;-61
2022/07/03 08:13:33;;;;;;;6.97;2.67;;;21.10;99.90;;;;;;5092829;28;20016;-59
2022/07/03 08:15:59;;;;;;;3.40;2.58;;;21.20;99.90;;;;;;5093305;28;20016;-60
2022/07/03 08:18:24;;;;;;;3.75;2.20;;;21.20;99.90;;;;;;5093323;28;20040;-59
2022/07/03 08:20:50;;;;;;;3.72;2.13;;;21.20;99.90;;;;;;5089253;28;20032;-60
2022/07/03 08:23:16;;;;;;;4.78;2.35;;;21.20;99.90;;;;;;5081200;28;20044;-59
2022/07/03 08:25:42;;;;;;;4.97;3.00;;;21.30;99.90;;;;;;5073174;28;20052;-59
2022/07/03 08:28:07;;;;;;;4.15;2.22;;;21.40;99.90;;;;;;5072989;28;20509;-59
2022/07/03 08:30:33;;;;;;;4.10;2.40;;;21.40;99.90;;;;;;5072950;28;20471;-60
2022/07/03 08:32:59;;;;;;;2.88;1.80;;;21.40;99.90;;;;;;5072619;28;20024;-59
2022/07/03 08:35:26;;;;;;;5.38;2.20;;;21.40;99.90;;;;;;5072770;28;20017;-59
2022/07/03 08:37:51;;;;;;;4.93;2.03;;;21.40;99.90;;;;;;5085760;28;20440;-58
2022/07/03 08:40:19;;;;;;;3.67;1.80;;;21.50;99.90;;;;;;5083736;28;20020;-60
2022/07/03 08:42:56;;;;;;;3.63;1.63;;;21.50;99.90;;;;;;5071745;28;20032;-60
2022/07/03 08:45:23;;;;;;;3.30;1.48;;;21.60;99.90;;;;;;5074182;28;20040;-60
2022/07/03 08:47:52;;;;;;;3.10;1.67;;;21.70;99.90;;;;;;5089344;28;20032;-60
2022/07/03 08:50:19;;;;;;;5.40;1.38;;;21.80;99.90;;;;;;5084258;28;20526;-60
2022/07/03 08:52:45;;;;;;;2.63;1.52;;;21.90;99.90;;;;;;5087428;28;20398;-60
2022/07/03 08:55:13;;;;;;;3.58;2.22;;;22.00;99.90;;;;;;5090127;28;20465;-57
2022/07/03 08:57:43;;;;;;;2.90;1.48;;;22.00;99.90;;;;;;5089585;28;20063;-59
2022/07/03 09:00:13;;;;;;;2.97;1.45;;;22.10;99.90;;;;;;5090624;28;20036;-60
2022/07/03 09:02:41;;;;;;;5.80;1.70;;;22.10;99.90;;;;;;5077895;28;20103;-60
2022/07/03 09:05:08;;;;;;;3.47;1.02;;;22.20;99.90;;;;;;5072146;28;20024;-60
2022/07/03 09:07:39;;;;;;;4.80;1.38;;;22.20;99.90;;;;;;5072256;28;20064;-59
2022/07/03 09:10:08;;;;;;;4.50;1.45;;;22.30;99.90;;;;;;5091013;28;20028;-61
2022/07/03 09:12:35;;;;;;;2.03;1.10;;;22.30;99.90;;;;;;5092131;28;20486;-58
2022/07/03 09:15:06;;;;;;;5.68;1.17;;;22.40;99.90;;;;;;5092313;28;20024;-59
2022/07/03 09:17:32;;;;;;;3.85;1.25;;;22.50;99.90;;;;;;5092357;28;20027;-59
2022/07/03 09:19:59;;;;;;;1.65;1.08;;;22.60;99.90;;;;;;5092236;28;20028;-59
2022/07/03 09:22:30;;;;;;;1.58;1.02;;;22.60;99.90;;;;;;5092106;28;20028;-57
2022/07/03 09:25:09;;;;;;;5.10;1.17;;;22.70;99.90;;;;;;5092014;28;20074;-59
2022/07/03 09:27:38;;;;;;;1.58;1.00;;;22.80;99.90;;;;;;5092116;28;20031;-59
2022/07/03 09:30:06;;;;;;;2.58;1.27;;;22.80;99.90;;;;;;5092194;28;20024;-60
2022/07/03 09:32:43;;;;;;;7.07;1.30;;;23.00;99.90;;;;;;5091705;28;20027;-58
2022/07/03 09:35:15;;;;;;;3.10;1.00;;;23.00;99.90;;;;;;5071949;28;20394;-60
2022/07/03 09:37:47;;;;;;;5.78;1.17;;;23.10;99.90;;;;;;5071812;28;20425;-60
2022/07/03 09:40:13;;;;;;;1.95;0.90;;;23.20;99.90;;;;;;5071680;28;20025;-61
2022/07/03 09:42:38;;;;;;;3.55;0.98;;;23.30;99.90;;;;;;5071532;28;20628;-60
2022/07/03 09:45:04;;;;;;;1.92;1.00;;;23.40;99.90;;;;;;5071523;28;20029;-59
2022/07/03 09:47:30;;;;;;;7.78;1.80;;;23.60;99.90;;;;;;5071849;28;20107;-59
2022/07/03 09:50:04;;;;;;;2.05;1.10;;;23.70;99.90;;;;;;5085862;22;20574;-60
2022/07/03 09:52:56;;;;;;;1.98;0.90;;;23.80;99.90;;;;;;5056443;28;20498;-60
2022/07/03 09:55:21;;;;;;;1.77;1.20;;;23.90;99.90;;;;;;5044615;28;20040;-60
2022/07/03 09:57:50;;;;;;;3.75;1.20;;;24.00;99.90;;;;;;5049293;28;20021;-63
2022/07/03 10:00:21;;;;;;;1.90;1.00;;;24.00;99.90;;;;;;5050716;28;20021;-62
2022/07/03 10:02:56;;;;;;;5.82;1.20;;;23.80;99.90;;;;;;5069355;28;20082;-62
2022/07/03 10:05:23;;;;;;;;;;;23.80;99.90;;;;;;5069968;28;20071;-62
2022/07/03 10:08:00;;;;;;;10.93;1.33;;;23.80;99.90;;;;;;5069428;28;19912;-62
2022/07/03 10:10:28;;;;;;;3.88;1.30;;;24.00;99.90;;;;;;5068876;28;20494;-62
2022/07/03 10:12:55;;;;;;;3.28;1.45;;;24.10;99.90;;;;;;5069010;28;20070;-62
2022/07/03 10:15:22;;;;;;;4.22;1.27;;;23.90;99.90;;;;;;5058267;28;20040;-62
2022/07/03 10:17:50;;;;;;;4.22;1.20;;;24.10;99.90;;;;;;5066023;28;20029;-62
2022/07/03 10:20:24;;;;;;;1.05;0.90;;;24.00;99.90;;;;;;5069408;28;20043;-62
2022/07/03 10:22:50;;;;;;;2.03;1.10;;;24.20;99.90;;;;;;5068922;28;20039;-62
2022/07/03 10:25:17;;;;;;;2.67;0.90;;;24.30;99.90;;;;;;5069191;28;20040;-62
2022/07/03 10:27:45;;;;;;;3.65;1.35;;;24.10;99.90;;;;;;5069323;28;20031;-62
2022/07/03 10:30:12;;;;;;;1.65;1.10;;;24.50;99.90;;;;;;5048146;28;20022;-63
2022/07/03 10:32:39;;;;;;;3.97;1.17;;;24.70;99.90;;;;;;5049093;28;20032;-58
2022/07/03 10:35:05;;;;;;;2.00;1.17;;;25.00;99.90;;;;;;5048919;28;20121;-61
2022/07/03 10:37:56;;;;;;;2.35;1.25;;;25.20;99.90;;;;;;5048906;28;20072;-60
2022/07/03 10:46:42;;;;;;;6.35;1.25;;;25.40;99.90;;;;;;5053026;28;20035;-62
2022/07/03 10:49:12;;;;;;;4.00;1.45;;;25.60;99.90;;;;;;5052931;28;20033;-63
2022/07/03 10:51:59;;;;;;;5.03;1.60;;;25.50;99.90;;;;;;5052250;28;20063;-62
2022/07/03 10:54:38;;;;;;;5.60;1.20;;;25.30;99.90;;;;;;5054097;28;20104;-61
2022/07/03 10:57:04;;;;;;;7.15;1.45;;;25.70;99.90;;;;;;5063533;28;20029;-60
2022/07/03 10:59:36;;;;;;;5.25;1.30;;;26.10;99.90;;;;;;5072869;28;20095;-63
2022/07/03 11:02:34;;;;;;;1.90;1.17;;;26.00;99.90;;;;;;5072559;28;20078;-61
2022/07/03 11:04:59;;;;;;;2.03;1.10;;;26.20;99.90;;;;;;5072319;28;20069;-62
2022/07/03 11:07:26;;;;;;;2.63;1.67;;;26.20;99.90;;;;;;5072745;28;20104;-63
2022/07/03 11:10:12;;;;;;;2.42;1.33;;;26.20;99.90;;;;;;5055340;28;20044;-62
2022/07/03 11:12:56;;;;;;;6.53;1.10;;;26.10;99.90;;;;;;5052347;28;20021;-62
2022/07/03 11:15:37;;;;;;;3.65;1.38;;;26.40;99.90;;;;;;5051418;28;20028;-63
2022/07/03 11:18:05;;;;;;;3.75;1.30;;;26.50;99.90;;;;;;5052547;28;20033;-60
2022/07/03 11:20:39;;;;;;;2.00;1.10;;;26.80;99.90;;;;;;5052983;28;20025;-61
2022/07/03 11:23:23;;;;;;;4.80;1.67;;;27.00;99.90;;;;;;5056514;28;20024;-60
2022/07/03 11:25:50;;;;;;;1.73;0.83;;;26.70;99.90;;;;;;5057742;28;20036;-60
2022/07/03 11:28:34;;;;;;;5.07;1.42;;;26.80;99.90;;;;;;5052797;28;20025;-60
2022/07/03 11:31:13;;;;;;;2.47;1.10;;;26.90;99.90;;;;;;5052272;28;20059;-63
2022/07/03 11:33:42;;;;;;;4.38;1.27;;;26.90;99.90;;;;;;5052008;28;20327;-63
2022/07/03 11:36:10;;;;;;;5.80;1.40;;;26.80;99.90;;;;;;5052211;28;20491;-63
2022/07/03 11:38:36;;;;;;;1.55;1.20;;;26.90;99.90;;;;;;5068198;28;20028;-63
2022/07/03 11:41:07;;;;;;;3.67;1.33;;;27.00;99.90;;;;;;5063640;28;20020;-63
2022/07/03 11:43:34;;;;;;;3.42;1.10;;;27.10;99.90;;;;;;5071328;28;20505;-62
2022/07/03 11:46:00;;;;;;;4.07;1.00;;;27.10;99.90;;;;;;5071476;28;20025;-63
2022/07/03 11:48:26;;;;;;;3.78;1.10;;;27.10;99.90;;;;;;5071596;28;20094;-62
2022/07/03 11:51:01;;;;;;;1.73;0.80;;;27.00;99.90;;;;;;5071840;28;20033;-63
2022/07/03 11:53:28;;;;;;;;;;;27.40;99.90;;;;;;5070549;28;20093;-63
2022/07/03 11:55:55;;;;;;;3.00;1.00;;;27.80;99.90;;;;;;5070564;28;19910;-63
2022/07/03 11:58:21;;;;;;;3.60;1.00;;;27.90;99.90;;;;;;5071986;28;20428;-63
2022/07/03 12:00:47;;;;;;;1.15;1.00;;;27.80;99.90;;;;;;5072235;28;20025;-63
2022/07/03 12:03:22;;;;;;;1.67;0.90;;;27.80;99.90;;;;;;5071342;28;20020;-63
2022/07/03 12:05:53;;;;;;;1.77;0.90;;;27.80;99.90;;;;;;5072214;28;20027;-60
2022/07/03 12:08:27;;;;;;;2.22;0.80;;;27.60;99.90;;;;;;5062381;28;20116;-62
2022/07/03 12:11:01;;;;;;;3.67;1.13;;;27.60;99.90;;;;;;5052126;28;20025;-62
2022/07/03 12:13:30;;;;;;;0.98;0.80;;;28.00;99.90;;;;;;5051339;28;20033;-63
2022/07/03 12:16:01;;;;;;;1.58;0.90;;;28.10;99.90;;;;;;5059729;28;20016;-61
2022/07/03 12:18:26;;;;;;;4.93;1.00;;;28.20;99.90;;;;;;5070953;28;20036;-63
2022/07/03 12:20:52;;;;;;;3.28;1.15;;;28.00;99.90;;;;;;5071247;28;20085;-63
2022/07/03 12:23:18;;;;;;;5.35;1.00;;;28.10;99.90;;;;;;5053017;28;20036;-62
2022/07/03 12:25:43;;;;;;;3.35;1.15;;;28.00;99.90;;;;;;5051487;28;20506;-62
2022/07/03 12:28:10;;;;;;;3.10;0.90;;;28.20;99.90;;;;;;5050890;28;20427;-63
2022/07/03 12:30:37;;;;;;;1.13;0.90;;;28.50;99.90;;;;;;5051236;28;20036;-63
2022/07/03 12:33:03;;;;;;;1.17;0.82;;;28.20;99.90;;;;;;5050973;28;20036;-63
2022/07/03 12:35:29;;;;;;;1.77;0.63;;;28.30;99.90;;;;;;5051167;28;20044;-63
2022/07/03 12:37:55;;;;;;;2.85;0.80;;;28.40;99.90;;;;;;5067854;28;20028;-62
2022/07/03 12:40:21;;;;;;;2.92;0.90;;;28.30;99.90;;;;;;5071100;28;20029;-62
2022/07/03 12:42:56;;;;;;;0.95;0.70;;;28.70;99.90;;;;;;5070657;28;20071;-62
2022/07/03 12:45:27;;;;;;;1.05;0.85;;;28.80;99.90;;;;;;5070955;28;20062;-63
2022/07/03 12:48:01;;;;;;;1.33;0.88;;;28.50;99.90;;;;;;5070722;28;20020;-63
2022/07/03 12:50:42;;;;;;;1.52;0.95;;;28.00;99.90;;;;;;5064888;28;20025;-62
2022/07/03 12:53:08;;;;;;;0.88;0.80;;;27.90;99.90;;;;;;5050726;28;20025;-63
2022/07/03 12:55:33;;;;;;;2.60;1.20;;;28.30;99.90;;;;;;5051959;28;20032;-63
2022/07/03 13:01:00;;;;;;;1.67;0.98;;;28.20;99.90;;;;;;5050907;28;20091;-63
2022/07/03 13:03:28;;;;;;;3.30;0.82;;;28.10;99.90;;;;;;5050062;28;20028;-62
2022/07/03 13:05:54;;;;;;;1.20;0.73;;;28.40;99.90;;;;;;5050796;28;20502;-63
2022/07/03 13:08:19;;;;;;;4.32;1.00;;;28.40;99.90;;;;;;5053866;28;20016;-62
2022/07/03 13:10:54;;;;;;;1.85;0.90;;;28.30;99.90;;;;;;5070197;28;20722;-63
2022/07/03 13:13:20;;;;;;;2.88;0.98;;;28.60;99.90;;;;;;5070118;28;20433;-62
2022/07/03 13:15:45;;;;;;;3.25;0.70;;;28.50;99.90;;;;;;5070389;28;20028;-63